Delray Beach, FL (33448)

9:32 AM EST on February 09, 2016 (GMT -0500)
Danny B at Four Seasons | | Change Station
CLOSE
Current Station
Personal Weather Station
Location: Delray Beach, FL
Elevation: 23 ft
Nearby Weather Stations

Elev 23 ft 26.46 °N, 80.20 °W | Updated 2 minutes ago

Partly Cloudy
Partly Cloudy
59.4 °F
Feels Like 59.4 °F
N
0.0
Wind Variable Wind from WNW

Today
High -- | Low -- °F
--% Chance of Precip.
Yesterday
High -- | Low -- °F
Precip. -- in
Pressure 30.08 in
Visibility 10.0 miles
Clouds Clear
Dew Point 46 °F
Humidity 62%
Rainfall 0.00 in
Snow Depth Not available.
7:01 AM 6:09 PM
New Moon, 1% visible
METAR KPMP 091353Z 29016G21KT 10SM CLR 16/07 A3007 RMK AO2 SLP184 T01560072
Pressure 30.08 in
Visibility 10.0 miles
Clouds Clear
Dew Point 46 °F
Humidity 62%
Rainfall 0.00 in
Snow Depth Not available.
7:01 AM 6:09 PM
New Moon, 1% visible
METAR KPMP 091353Z 29016G21KT 10SM CLR 16/07 A3007 RMK AO2 SLP184 T01560072

10-Day Weather Forecast

Almanac

Astronomy

Feb. 09, 2016 Rise Set
Actual Time
Civil Twilight
Nautical Twilight
Astronomical Twilight
Moon
Length of Visible Light
Length of Day
Tomorrow will be .
, % of the Moon is Illuminated

Today's Extremes

State Highs State Lows

Community

WunderPhotos

Upload Photos

1,891,606 photos uploaded!

WunderBlog® & News

Nearby

Air Quality

  Air Quality AQ Index Pollutant
Not available.

Snow Depth

Station Depth Elevation

Earthquake Activity

City Distance Mag. Time & Date
Minimum magnitude displayed is 2.5.

Coastal Water Temperatures

Place Temperature

Stations

Nearby Weather Stations

Station Location Temp. Windchill Dew Point Humidity Wind Precip. Elev Updated Type
                   

Watches & Warnings

There are currently no watches in effect.